createdAt,value
2022-11-25T00:01:46.068Z,6.10
2022-11-25T00:04:17.727Z,6.00
2022-11-25T00:09:22.768Z,6.00
2022-11-25T00:11:54.347Z,5.80
2022-11-25T00:14:25.980Z,5.70
2022-11-25T00:16:58.987Z,5.80
2022-11-25T00:19:30.857Z,5.60
2022-11-25T00:29:41.526Z,5.50
2022-11-25T00:32:16.547Z,5.30
2022-11-25T00:34:48.162Z,5.50
2022-11-25T00:37:19.749Z,5.40
2022-11-25T00:39:51.628Z,5.40
2022-11-25T00:45:16.372Z,5.00
2022-11-25T00:47:49.310Z,5.30
2022-11-25T00:50:20.909Z,5.10
2022-11-25T00:52:52.513Z,5.10
2022-11-25T00:55:24.135Z,5.10
2022-11-25T00:57:55.886Z,5.10
2022-11-25T01:00:27.486Z,5.00
2022-11-25T01:03:00.442Z,5.00
2022-11-25T01:05:32.486Z,5.00
2022-11-25T01:08:04.274Z,5.00
2022-11-25T01:10:35.872Z,4.90
2022-11-25T01:13:07.522Z,4.90
2022-11-25T01:15:39.142Z,5.00
2022-11-25T01:18:12.075Z,5.00
2022-11-25T01:20:43.731Z,5.00
2022-11-25T01:23:15.360Z,5.00
2022-11-25T01:25:46.961Z,5.00
2022-11-25T01:28:18.584Z,5.10
2022-11-25T01:30:58.468Z,5.10
2022-11-25T01:33:34.531Z,5.10
2022-11-25T01:36:07.379Z,5.00
2022-11-25T01:38:39.326Z,5.10
2022-11-25T01:41:12.050Z,5.10
2022-11-25T01:43:43.690Z,5.10
2022-11-25T01:46:20.556Z,5.20
2022-11-25T01:48:55.089Z,4.60
2022-11-25T01:51:28.135Z,5.20
2022-11-25T01:54:02.574Z,5.10
2022-11-25T01:56:37.268Z,5.10
2022-11-25T01:59:08.997Z,5.10
2022-11-25T02:01:40.795Z,5.20
2022-11-25T02:04:14.703Z,5.10
2022-11-25T02:06:49.244Z,5.10
2022-11-25T02:09:21.434Z,5.10
2022-11-25T02:11:53.220Z,5.10
2022-11-25T02:14:25.549Z,5.20
2022-11-25T02:19:36.421Z,5.10
2022-11-25T02:22:11.980Z,5.10
2022-11-25T02:24:45.240Z,5.10
2022-11-25T02:27:19.091Z,5.10
2022-11-25T02:29:51.780Z,5.20
2022-11-25T02:32:23.472Z,5.10
2022-11-25T02:34:55.089Z,5.10
2022-11-25T02:37:27.492Z,5.10
2022-11-25T02:39:59.090Z,5.10
2022-11-25T02:45:09.590Z,5.10
2022-11-25T02:47:41.216Z,5.10
2022-11-25T02:50:13.824Z,5.10
2022-11-25T02:52:45.535Z,5.00
2022-11-25T02:55:17.278Z,5.10
2022-11-25T02:57:48.908Z,5.10
2022-11-25T03:00:22.121Z,5.10
2022-11-25T03:02:54.563Z,5.10
2022-11-25T03:05:26.272Z,5.10
2022-11-25T03:07:57.939Z,5.10
2022-11-25T03:10:29.711Z,5.10
2022-11-25T03:13:01.549Z,5.10
2022-11-25T03:15:34.941Z,5.20
2022-11-25T03:18:07.393Z,5.10
2022-11-25T03:20:39.033Z,5.10
2022-11-25T03:23:10.777Z,5.20
2022-11-25T03:25:42.373Z,5.20
2022-11-25T03:28:14.076Z,5.20
2022-11-25T03:30:47.017Z,5.20
2022-11-25T03:33:18.733Z,5.20
2022-11-25T03:35:50.322Z,5.20
2022-11-25T03:38:21.962Z,5.20
2022-11-25T03:40:53.602Z,5.20
2022-11-25T03:43:25.229Z,5.20
2022-11-25T03:45:58.200Z,5.30
2022-11-25T03:48:29.891Z,5.30
2022-11-25T03:51:01.491Z,5.30
2022-11-25T03:53:33.091Z,5.30
2022-11-25T03:56:04.962Z,5.30
2022-11-25T03:58:36.640Z,5.30
2022-11-25T04:01:09.699Z,5.40
2022-11-25T04:03:41.463Z,5.40
2022-11-25T04:06:13.045Z,5.40
2022-11-25T04:08:44.642Z,5.40
2022-11-25T04:11:16.565Z,5.40
2022-11-25T04:13:48.223Z,5.50
2022-11-25T04:16:23.087Z,5.40
2022-11-25T04:18:54.741Z,5.50
2022-11-25T04:21:26.455Z,5.50
2022-11-25T04:23:58.078Z,5.50
2022-11-25T04:26:29.680Z,5.60
2022-11-25T04:29:01.415Z,5.50
2022-11-25T04:31:34.504Z,5.50
2022-11-25T04:34:06.158Z,5.50
2022-11-25T04:36:37.845Z,5.60
2022-11-25T04:39:09.511Z,5.60
2022-11-25T04:41:41.097Z,5.50
2022-11-25T04:44:12.729Z,5.60
2022-11-25T04:46:45.850Z,5.60
2022-11-25T04:49:17.526Z,5.60
2022-11-25T04:51:49.127Z,5.60
2022-11-25T04:54:20.735Z,5.60
2022-11-25T04:56:52.322Z,5.60
2022-11-25T04:59:39.520Z,5.60
2022-11-25T05:02:15.034Z,5.60
2022-11-25T05:04:47.548Z,5.60
2022-11-25T05:07:20.172Z,5.60
2022-11-25T05:09:51.990Z,5.50
2022-11-25T05:12:24.373Z,5.60
2022-11-25T05:14:56.134Z,5.60
2022-11-25T05:17:30.135Z,5.60
2022-11-25T05:20:01.856Z,5.60
2022-11-25T05:22:34.149Z,5.50
2022-11-25T05:25:06.320Z,5.60
2022-11-25T05:27:37.933Z,5.50
2022-11-25T05:30:09.936Z,5.50
2022-11-25T05:32:44.236Z,5.50
2022-11-25T05:35:16.005Z,5.40
2022-11-25T05:37:47.658Z,5.50
2022-11-25T05:40:19.406Z,5.50
2022-11-25T05:42:51.174Z,5.50
2022-11-25T05:45:22.810Z,5.40
2022-11-25T05:47:56.042Z,5.50
2022-11-25T05:50:27.668Z,5.50
2022-11-25T05:52:59.269Z,5.40
2022-11-25T05:55:30.883Z,5.40
2022-11-25T05:58:03.036Z,5.40
2022-11-25T06:00:34.884Z,5.40
2022-11-25T06:03:07.932Z,5.40
2022-11-25T06:05:41.139Z,5.40
2022-11-25T06:08:12.778Z,5.30
2022-11-25T06:10:44.389Z,5.30
2022-11-25T06:13:15.978Z,5.30
2022-11-25T06:15:47.762Z,5.30
2022-11-25T06:18:20.820Z,5.30
2022-11-25T06:20:58.742Z,5.30
2022-11-25T06:23:31.420Z,5.30
2022-11-25T06:26:04.143Z,5.20
2022-11-25T06:28:36.082Z,5.30
2022-11-25T06:31:08.141Z,5.30
2022-11-25T06:33:41.407Z,5.20
2022-11-25T06:36:17.069Z,5.20
2022-11-25T06:38:50.372Z,5.20
2022-11-25T06:41:22.721Z,5.20
2022-11-25T06:43:54.326Z,5.20
2022-11-25T06:46:25.979Z,5.20
2022-11-25T06:49:00.366Z,5.20
2022-11-25T06:51:31.970Z,5.10
2022-11-25T06:54:03.708Z,5.20
2022-11-25T06:56:35.369Z,5.10
2022-11-25T06:59:07.031Z,5.10
2022-11-25T07:01:39.145Z,5.10
2022-11-25T07:04:12.229Z,5.20
2022-11-25T07:06:43.865Z,5.20
2022-11-25T07:09:15.478Z,5.20
2022-11-25T07:11:47.183Z,5.20
2022-11-25T07:14:18.826Z,5.20
2022-11-25T07:16:50.435Z,5.20
2022-11-25T07:19:23.530Z,5.20
2022-11-25T07:21:55.157Z,5.30
2022-11-25T07:24:26.915Z,5.30
2022-11-25T07:26:58.526Z,5.30
2022-11-25T07:29:51.940Z,5.40
2022-11-25T07:32:22.628Z,5.40
2022-11-25T07:34:55.635Z,5.40
2022-11-25T07:37:27.695Z,5.50
2022-11-25T07:39:59.320Z,5.50
2022-11-25T07:42:30.902Z,5.50
2022-11-25T07:45:02.502Z,5.50
2022-11-25T07:47:35.573Z,5.60
2022-11-25T07:50:09.320Z,5.60
2022-11-25T07:52:41.028Z,5.60
2022-11-25T07:55:12.669Z,5.60
2022-11-25T07:57:44.251Z,5.70
2022-11-25T08:00:16.422Z,5.70
2022-11-25T08:02:48.091Z,5.70
2022-11-25T08:05:21.123Z,5.80
2022-11-25T08:07:52.822Z,5.80
2022-11-25T08:10:27.662Z,5.80
2022-11-25T08:12:59.320Z,5.90
2022-11-25T08:15:32.069Z,5.90
2022-11-25T08:18:08.781Z,6.00
2022-11-25T08:20:41.838Z,6.00
2022-11-25T08:23:13.460Z,6.10
2022-11-25T08:25:50.271Z,6.10
2022-11-25T08:28:22.314Z,6.20
2022-11-25T08:31:00.931Z,6.20
2022-11-25T08:33:32.858Z,6.30
2022-11-25T08:36:06.423Z,6.30
2022-11-25T08:38:38.103Z,6.30
2022-11-25T08:41:10.899Z,6.40
2022-11-25T08:43:42.719Z,6.40
2022-11-25T08:46:15.985Z,6.50
2022-11-25T08:48:47.643Z,6.50
2022-11-25T08:51:21.995Z,6.60
2022-11-25T08:53:53.693Z,6.60
2022-11-25T08:56:26.561Z,6.70
2022-11-25T08:59:00.007Z,6.80
2022-11-25T09:01:31.953Z,6.80
2022-11-25T09:04:09.485Z,6.90
2022-11-25T09:06:42.442Z,7.00
2022-11-25T09:09:14.118Z,7.00
2022-11-25T09:11:45.968Z,7.00
2022-11-25T09:14:17.707Z,7.10
2022-11-25T09:16:49.879Z,7.10
2022-11-25T09:19:21.566Z,7.20
2022-11-25T09:21:54.783Z,7.20
2022-11-25T09:24:26.400Z,7.30
2022-11-25T09:26:58.144Z,7.30
2022-11-25T09:29:30.867Z,7.40
2022-11-25T09:32:02.566Z,7.40
2022-11-25T09:34:34.428Z,7.50
2022-11-25T09:37:07.642Z,7.50
2022-11-25T09:39:39.507Z,7.50
2022-11-25T09:42:39.730Z,7.50
2022-11-25T09:45:34.445Z,7.60
2022-11-25T09:48:12.569Z,7.60
2022-11-25T09:50:52.442Z,7.70
2022-11-25T09:53:35.375Z,7.70
2022-11-25T09:56:11.372Z,7.70
2022-11-25T09:58:47.140Z,7.80
2022-11-25T10:01:20.812Z,7.80
2022-11-25T10:03:55.595Z,7.90
2022-11-25T10:06:28.500Z,7.90
2022-11-25T10:09:03.400Z,8.00
2022-11-25T10:11:42.803Z,8.00
2022-11-25T10:14:18.185Z,8.00
2022-11-25T10:16:51.864Z,8.00
2022-11-25T10:19:26.230Z,8.00
2022-11-25T10:21:57.911Z,8.10
2022-11-25T10:24:30.888Z,8.10
2022-11-25T10:27:06.049Z,8.10
2022-11-25T10:29:38.076Z,8.10
2022-11-25T10:32:16.039Z,8.20
2022-11-25T10:34:49.477Z,8.20
2022-11-25T10:37:25.394Z,8.30
2022-11-25T10:39:58.428Z,8.30
2022-11-25T10:42:32.379Z,8.30
2022-11-25T10:45:08.838Z,8.40
2022-11-25T10:47:56.868Z,8.40
2022-11-25T10:50:32.647Z,8.40
2022-11-25T10:53:12.006Z,8.40
2022-11-25T10:55:56.209Z,8.40
2022-11-25T10:58:29.419Z,8.40
2022-11-25T11:01:12.665Z,8.40
2022-11-25T11:03:44.978Z,8.40
2022-11-25T11:06:31.240Z,8.40
2022-11-25T11:09:04.350Z,8.30
2022-11-25T11:11:46.645Z,8.30
2022-11-25T11:14:20.219Z,8.40
2022-11-25T11:16:53.081Z,8.40
2022-11-25T11:19:26.011Z,8.40
2022-11-25T11:22:13.877Z,8.40
2022-11-25T11:24:45.509Z,8.40
2022-11-25T11:27:20.678Z,8.40
2022-11-25T11:30:07.733Z,8.50
2022-11-25T11:32:41.113Z,8.50
2022-11-25T11:35:18.704Z,8.50
2022-11-25T11:37:52.590Z,8.50
2022-11-25T11:40:29.721Z,8.50
2022-11-25T11:43:08.470Z,8.60
2022-11-25T11:45:45.501Z,8.60
2022-11-25T11:48:21.200Z,8.60
2022-11-25T11:50:57.423Z,8.70
2022-11-25T11:53:31.198Z,8.70
2022-11-25T11:59:08.397Z,8.80
2022-11-25T12:01:45.458Z,8.80
2022-11-25T12:04:18.967Z,8.90
2022-11-25T12:06:55.953Z,8.90
2022-11-25T12:09:28.762Z,9.00
2022-11-25T12:12:02.550Z,9.00
2022-11-25T12:14:38.278Z,9.00
2022-11-25T12:17:14.955Z,9.00
2022-11-25T12:19:53.694Z,9.10
2022-11-25T12:22:27.200Z,9.10
2022-11-25T12:25:03.305Z,9.10
2022-11-25T12:27:36.287Z,9.20
2022-11-25T12:30:11.546Z,9.20
2022-11-25T12:32:49.556Z,9.20
2022-11-25T12:35:24.153Z,9.30
2022-11-25T12:37:59.973Z,9.30
2022-11-25T12:40:34.347Z,9.40
2022-11-25T12:43:10.854Z,9.40
2022-11-25T12:45:45.202Z,9.40
2022-11-25T12:48:21.316Z,9.40
2022-11-25T12:50:57.598Z,9.50
2022-11-25T12:53:36.042Z,9.50
2022-11-25T12:56:15.134Z,9.60
2022-11-25T12:58:51.878Z,9.60
2022-11-25T13:01:46.010Z,9.60
2022-11-25T13:04:36.845Z,9.70
2022-11-25T13:07:26.371Z,9.70
2022-11-25T13:10:15.678Z,9.80
2022-11-25T13:12:54.423Z,10.00
2022-11-25T13:15:28.695Z,10.40
2022-11-25T13:18:09.390Z,10.80
2022-11-25T13:20:50.818Z,10.80
2022-11-25T13:23:24.138Z,10.80
2022-11-25T13:26:14.670Z,10.80
2022-11-25T13:28:46.370Z,10.70
2022-11-25T13:31:19.656Z,10.70
2022-11-25T13:33:59.757Z,10.70
2022-11-25T13:36:44.632Z,10.70
2022-11-25T13:39:17.569Z,10.60
2022-11-25T13:41:50.099Z,10.60
2022-11-25T13:44:24.327Z,10.60
2022-11-25T13:46:58.171Z,10.50
2022-11-25T13:49:36.322Z,10.50
2022-11-25T13:52:27.866Z,10.50
2022-11-25T13:55:00.526Z,10.50
2022-11-25T13:57:34.588Z,10.50
2022-11-25T14:00:07.209Z,10.40
2022-11-25T14:02:44.822Z,10.40
2022-11-25T14:05:33.631Z,10.40
2022-11-25T14:08:10.836Z,10.40
2022-11-25T14:10:45.859Z,10.40
2022-11-25T14:13:22.739Z,10.40
2022-11-25T14:16:06.490Z,10.40
2022-11-25T14:19:21.886Z,10.40
2022-11-25T14:21:52.093Z,10.30
2022-11-25T14:24:29.596Z,10.40
2022-11-25T14:27:01.774Z,10.30
2022-11-25T14:29:37.708Z,10.30
2022-11-25T14:32:12.523Z,10.30
2022-11-25T14:34:46.737Z,10.30
2022-11-25T14:37:23.857Z,10.30
2022-11-25T14:39:56.469Z,10.30
2022-11-25T14:42:32.731Z,10.30
2022-11-25T14:45:19.025Z,10.30
2022-11-25T14:47:50.802Z,10.30
2022-11-25T14:50:38.849Z,10.30
2022-11-25T14:53:14.153Z,10.30
2022-11-25T14:55:47.597Z,10.30
2022-11-25T14:58:19.634Z,10.30
2022-11-25T15:00:52.447Z,10.30
2022-11-25T15:03:24.449Z,10.30
2022-11-25T15:05:57.291Z,10.30
2022-11-25T15:08:37.525Z,10.30
2022-11-25T15:11:12.917Z,10.40
2022-11-25T15:13:45.563Z,10.40
2022-11-25T15:16:18.638Z,10.40
2022-11-25T15:18:51.436Z,10.40
2022-11-25T15:21:26.542Z,10.40
2022-11-25T15:23:59.631Z,10.30
2022-11-25T15:26:32.440Z,10.30
2022-11-25T15:29:09.844Z,10.30
2022-11-25T15:31:42.038Z,10.30
2022-11-25T15:34:14.523Z,10.30
2022-11-25T15:36:51.168Z,10.30
2022-11-25T15:39:27.706Z,10.30
2022-11-25T15:42:05.596Z,10.20
2022-11-25T15:44:40.473Z,10.20
2022-11-25T15:47:17.872Z,10.20
2022-11-25T15:50:02.088Z,10.20
2022-11-25T15:52:35.707Z,10.20
2022-11-25T15:55:18.624Z,10.20
2022-11-25T15:57:51.019Z,10.20
2022-11-25T16:00:23.272Z,10.20
2022-11-25T16:02:55.693Z,10.20
2022-11-25T16:05:29.098Z,10.20
2022-11-25T16:08:02.720Z,10.20
2022-11-25T16:10:48.932Z,10.20
2022-11-25T16:13:29.821Z,10.10
2022-11-25T16:16:12.998Z,10.10
2022-11-25T16:18:51.470Z,10.30
2022-11-25T16:21:23.866Z,10.50
2022-11-25T16:23:57.650Z,10.80
2022-11-25T16:26:32.502Z,11.00
2022-11-25T16:29:17.087Z,11.30
2022-11-25T16:31:48.851Z,11.50
2022-11-25T16:34:21.774Z,11.70
2022-11-25T16:36:56.938Z,11.90
2022-11-25T16:39:28.516Z,12.10
2022-11-25T16:42:03.993Z,12.20
2022-11-25T16:44:36.294Z,12.30
2022-11-25T16:47:09.163Z,12.40
2022-11-25T16:49:40.898Z,12.50
2022-11-25T16:52:12.814Z,12.50
2022-11-25T16:54:44.698Z,12.50
2022-11-25T16:57:20.097Z,12.60
2022-11-25T16:59:55.908Z,12.60
2022-11-25T17:02:29.153Z,12.60
2022-11-25T17:05:06.840Z,12.70
2022-11-25T17:07:38.678Z,12.70
2022-11-25T17:10:10.818Z,12.70
2022-11-25T17:12:45.091Z,12.70
2022-11-25T17:15:18.330Z,12.70
2022-11-25T17:17:50.148Z,12.70
2022-11-25T17:20:23.809Z,12.70
2022-11-25T17:22:55.679Z,12.70
2022-11-25T17:25:32.331Z,12.60
2022-11-25T17:28:09.876Z,12.60
2022-11-25T17:30:42.267Z,12.60
2022-11-25T17:33:15.893Z,12.60
2022-11-25T17:35:47.570Z,12.50
2022-11-25T17:38:20.207Z,12.60
2022-11-25T17:40:52.355Z,12.50
2022-11-25T17:43:28.115Z,12.50
2022-11-25T17:46:03.720Z,12.50
2022-11-25T17:48:36.207Z,12.50
2022-11-25T17:51:08.388Z,12.50
2022-11-25T17:53:40.601Z,12.60
2022-11-25T17:56:17.212Z,12.60
2022-11-25T17:58:50.848Z,12.60
2022-11-25T18:01:22.520Z,12.60
2022-11-25T18:03:54.203Z,12.60
2022-11-25T18:06:25.786Z,12.60
2022-11-25T18:08:57.383Z,12.60
2022-11-25T18:11:28.999Z,12.60
2022-11-25T18:14:01.938Z,12.60
2022-11-25T18:16:35.321Z,12.60
2022-11-25T18:19:10.225Z,12.70
2022-11-25T18:21:41.840Z,12.70
2022-11-25T18:24:13.442Z,12.70
2022-11-25T18:26:47.218Z,12.70
2022-11-25T18:29:24.640Z,12.70
2022-11-25T18:31:56.673Z,12.70
2022-11-25T18:34:28.452Z,12.80
2022-11-25T18:37:00.912Z,12.80
2022-11-25T18:39:32.533Z,12.80
2022-11-25T18:42:05.448Z,12.80
2022-11-25T18:44:43.460Z,12.80
2022-11-25T18:47:15.301Z,12.80
2022-11-25T18:49:50.982Z,12.80
2022-11-25T18:52:25.715Z,12.90
2022-11-25T18:54:57.363Z,12.90
2022-11-25T18:57:29.053Z,12.90
2022-11-25T19:00:31.753Z,12.80
2022-11-25T19:02:53.754Z,12.80
2022-11-25T19:05:28.286Z,12.80
2022-11-25T19:08:00.287Z,12.80
2022-11-25T19:10:35.228Z,12.80
2022-11-25T19:13:08.273Z,12.70
2022-11-25T19:15:41.815Z,12.70
2022-11-25T19:18:15.734Z,12.70
2022-11-25T19:20:47.346Z,12.70
2022-11-25T19:23:22.635Z,12.70
2022-11-25T19:25:54.787Z,12.80
2022-11-25T19:28:26.894Z,12.70
2022-11-25T19:31:00.621Z,12.70
2022-11-25T19:33:34.074Z,12.70
2022-11-25T19:36:06.309Z,12.70
2022-11-25T19:38:37.926Z,12.70
2022-11-25T19:41:09.531Z,12.70
2022-11-25T19:43:41.135Z,12.70
2022-11-25T19:46:29.114Z,12.60
2022-11-25T19:49:02.887Z,12.60
2022-11-25T19:51:34.781Z,12.60
2022-11-25T19:54:09.077Z,12.60
2022-11-25T19:56:41.253Z,12.50
2022-11-25T19:59:12.950Z,12.50
2022-11-25T20:01:46.293Z,12.40
2022-11-25T20:04:19.609Z,12.40
2022-11-25T20:06:51.266Z,12.40
2022-11-25T20:09:22.859Z,12.40
2022-11-25T20:11:58.540Z,12.40
2022-11-25T20:14:34.645Z,12.40
2022-11-25T20:17:12.223Z,12.40
2022-11-25T20:19:43.994Z,12.40
2022-11-25T20:22:16.374Z,12.40
2022-11-25T20:24:48.003Z,12.40
2022-11-25T20:27:20.301Z,12.40
2022-11-25T20:29:51.996Z,12.40
2022-11-25T20:32:28.072Z,12.40
2022-11-25T20:34:59.923Z,12.40
2022-11-25T20:37:40.384Z,12.40
2022-11-25T20:40:15.027Z,12.40
2022-11-25T20:42:47.251Z,12.40
2022-11-25T20:45:20.348Z,12.30
2022-11-25T20:47:53.638Z,12.30
2022-11-25T20:50:25.502Z,12.30
2022-11-25T20:52:57.180Z,12.30
2022-11-25T20:55:28.940Z,12.30
2022-11-25T20:58:01.060Z,12.20
2022-11-25T21:00:32.766Z,12.20
2022-11-25T21:03:06.146Z,12.20
2022-11-25T21:05:37.854Z,12.20
2022-11-25T21:08:12.263Z,12.20
2022-11-25T21:10:44.020Z,12.20
2022-11-25T21:13:16.953Z,12.20
2022-11-25T21:15:53.290Z,12.20
2022-11-25T21:18:26.324Z,12.20
2022-11-25T21:20:58.183Z,12.20
2022-11-25T21:23:32.013Z,12.20
2022-11-25T21:26:04.765Z,12.20
2022-11-25T21:28:53.855Z,12.20
2022-11-25T21:31:25.899Z,12.20
2022-11-25T21:34:00.780Z,12.30
2022-11-25T21:36:32.840Z,12.30
2022-11-25T21:39:06.773Z,12.30
2022-11-25T21:41:38.566Z,12.30
2022-11-25T21:44:11.387Z,12.30
2022-11-25T21:46:43.055Z,12.30
2022-11-25T21:49:16.085Z,12.20
2022-11-25T21:51:47.805Z,12.20
2022-11-25T21:54:19.443Z,12.10
2022-11-25T21:56:52.256Z,12.10
2022-11-25T21:59:24.326Z,12.00
2022-11-25T22:01:56.667Z,12.00
2022-11-25T22:04:29.894Z,11.90
2022-11-25T22:07:01.507Z,11.90
2022-11-25T22:09:33.139Z,11.90
2022-11-25T22:12:05.239Z,11.80
2022-11-25T22:14:38.204Z,11.80
2022-11-25T22:17:13.095Z,11.80
2022-11-25T22:19:46.128Z,11.80
2022-11-25T22:22:17.922Z,11.70
2022-11-25T22:24:49.608Z,11.70
2022-11-25T22:27:22.383Z,11.70
2022-11-25T22:29:54.320Z,11.80
2022-11-25T22:32:26.156Z,11.80
2022-11-25T22:34:59.215Z,11.80
2022-11-25T22:37:31.275Z,11.90
2022-11-25T22:40:03.099Z,11.90
2022-11-25T22:42:34.795Z,11.90
2022-11-25T22:45:07.857Z,11.90
2022-11-25T22:47:40.969Z,12.00
2022-11-25T22:50:18.354Z,12.00
2022-11-25T22:52:50.591Z,12.00
2022-11-25T22:55:23.591Z,12.10
2022-11-25T22:57:56.395Z,12.10
2022-11-25T23:00:28.832Z,12.10
2022-11-25T23:03:00.815Z,12.10
2022-11-25T23:05:35.841Z,12.10
2022-11-25T23:08:11.124Z,12.10
2022-11-25T23:10:42.881Z,12.10
2022-11-25T23:13:15.863Z,12.00
2022-11-25T23:15:49.090Z,12.00
2022-11-25T23:18:24.646Z,12.00
2022-11-25T23:20:57.723Z,12.00
2022-11-25T23:23:29.762Z,12.00
2022-11-25T23:26:01.359Z,12.00
2022-11-25T23:28:32.949Z,12.00
2022-11-25T23:31:04.638Z,12.00
2022-11-25T23:33:37.889Z,12.00
2022-11-25T23:36:13.155Z,12.00
2022-11-25T23:38:46.427Z,12.00
2022-11-25T23:41:20.095Z,12.00
2022-11-25T23:43:51.790Z,12.00
2022-11-25T23:46:25.021Z,11.90
2022-11-25T23:48:57.599Z,11.90
2022-11-25T23:51:30.642Z,11.90
2022-11-25T23:54:02.381Z,11.90
2022-11-25T23:56:33.985Z,11.90
2022-11-25T23:59:09.782Z,11.80
